CDT,Max TemperatureF,Mean TemperatureF,Min TemperatureF,Max Dew PointF,MeanDew PointF,Min DewpointF,Max Humidity, Mean Humidity, Min Humidity, Max Sea Level PressureIn, Mean Sea Level PressureIn, Min Sea Level PressureIn, Max VisibilityMiles, Mean VisibilityMiles, Min VisibilityMiles, Max Wind SpeedMPH, Mean Wind SpeedMPH, Max Gust SpeedMPH,PrecipitationIn, CloudCover, Events, WindDirDegrees
2013-7-1,93,80,68,62,57,52,74,44,24,29.97,29.92,29.85,10,10,10,14,7,22,0.00,1,,8
2013-7-2,94,81,68,64,59,51,76,52,23,30.03,29.98,29.92,10,10,10,13,4,18,0.00,2,,356
2013-7-3,95,80,66,69,63,51,95,61,23,30.03,29.98,29.91,10,10,7,20,3,22,0.00,1,,136
2013-7-4,96,81,66,72,66,59,94,69,29,30.01,29.96,29.90,10,10,7,18,2,25,0.00,1,,126
2013-7-5,97,82,67,72,66,60,96,66,30,29.98,29.93,29.86,10,9,4,16,3,23,0.00,1,,105
2013-7-6,97,82,69,73,68,61,96,66,31,29.94,29.90,29.84,10,10,5,17,4,25,0.00,1,,91
2013-7-7,91,82,73,76,73,69,96,79,49,30.01,29.95,29.90,10,10,5,22,5,25,0.05,3,Rain,113
2013-7-8,91,81,71,75,73,70,96,83,52,30.15,30.08,30.01,10,9,2,17,6,17,0.79,3,Rain,137
2013-7-9,96,84,73,78,73,70,97,75,44,30.16,30.10,30.05,10,8,0,14,3,20,0.00,1,Fog-Rain,140
2013-7-10,91,82,73,77,73,70,97,78,52,30.11,30.05,29.97,10,9,4,14,3,20,0.05,2,Rain-Thunderstorm,169
2013-7-11,95,83,71,77,72,66,97,73,40,30.03,29.98,29.92,10,9,0,14,4,,0.12,1,Fog,186
2013-7-12,95,84,73,75,72,67,96,76,40,29.98,29.94,29.90,10,9,2,14,3,18,0.22,2,Rain-Thunderstorm,205
2013-7-13,96,84,72,75,71,64,97,69,35,30.00,29.92,29.85,10,10,2,14,2,18,0.44,0,,206
2013-7-14,93,82,73,75,72,66,95,75,45,29.95,29.91,29.86,10,10,10,14,3,18,0.10,2,Rain-Thunderstorm,157
2013-7-15,90,81,73,75,73,70,95,84,56,30.03,29.96,29.90,10,10,2,16,5,23,0.34,2,Rain-Thunderstorm,90
2013-7-16,88,80,72,75,73,70,95,85,60,30.11,30.05,30.01,10,10,2,14,6,26,0.09,1,Rain-Thunderstorm,70
2013-7-17,86,79,72,76,73,70,96,86,66,30.16,30.13,30.09,10,10,1,15,5,18,0.71,2,Rain-Thunderstorm,71
2013-7-18,90,80,72,76,73,69,96,85,56,30.14,30.09,30.01,10,9,0,18,3,29,0.53,2,Rain-Thunderstorm,90
2013-7-19,92,81,70,75,71,66,97,80,46,30.07,30.02,29.94,10,9,5,21,2,33,0.00,1,Rain-Thunderstorm,81
2013-7-20,91,82,72,76,72,69,97,78,48,30.00,29.95,29.88,10,9,2,14,2,21,0.00,1,Thunderstorm,142
2013-7-21,87,80,73,77,74,72,97,86,66,30.00,29.96,29.93,10,9,5,17,4,24,0.02,2,Rain-Thunderstorm,147
2013-7-22,91,84,76,78,75,72,96,79,55,30.03,29.99,29.96,10,7,4,18,7,23,0.00,2,,162
2013-7-23,91,83,75,76,74,71,96,78,53,30.04,29.99,29.93,10,7,4,17,8,21,0.00,1,,169
2013-7-24,93,82,72,77,74,71,97,78,52,30.02,29.96,29.89,10,8,2,13,5,13,0.00,1,,185
2013-7-25,96,82,70,76,73,68,97,75,41,30.05,30.01,29.97,10,8,0,13,4,,0.00,1,Fog,192
2013-7-26,92,82,72,79,74,72,98,78,54,30.06,30.00,29.93,10,8,0,15,5,20,0.00,2,Fog,181
2013-7-27,94,86,78,78,75,72,94,79,49,29.97,29.93,29.86,10,9,4,13,6,18,0.32,3,Rain-Thunderstorm,202
2013-7-28,92,84,75,80,74,70,96,78,49,29.97,29.94,29.90,10,8,2,16,4,20,0.00,2,,172
2013-7-29,94,84,74,78,72,64,96,74,39,30.08,30.03,29.97,10,8,3,17,8,24,0.00,1,,152
2013-7-30,93,83,73,77,72,59,97,76,32,30.12,30.08,30.03,10,8,3,15,6,20,0.00,1,,160
2013-7-31,96,82,70,79,71,66,98,73,37,30.11,30.04,29.96,10,7,0,13,3,,0.00,1,Fog,192